createdAt,value
2023-04-27T00:02:21.909Z,2.70
2023-04-27T00:05:25.082Z,2.65
2023-04-27T00:08:28.209Z,2.83
2023-04-27T00:11:31.143Z,3.17
2023-04-27T00:14:34.117Z,3.40
2023-04-27T00:17:37.667Z,3.53
2023-04-27T00:20:40.926Z,3.00
2023-04-27T00:23:44.191Z,3.58
2023-04-27T00:26:47.158Z,3.57
2023-04-27T00:29:50.109Z,3.08
2023-04-27T00:32:53.086Z,3.47
2023-04-27T00:35:59.308Z,3.50
2023-04-27T00:39:03.081Z,3.33
2023-04-27T00:42:15.166Z,3.77
2023-04-27T00:45:18.083Z,4.28
2023-04-27T00:48:21.064Z,4.75
2023-04-27T00:51:28.071Z,4.00
2023-04-27T00:54:31.655Z,3.80
2023-04-27T00:57:34.723Z,3.77
2023-04-27T01:00:37.784Z,3.28
2023-04-27T01:03:40.961Z,3.70
2023-04-27T01:06:44.135Z,4.28
2023-04-27T01:09:47.217Z,5.13
2023-04-27T01:12:52.092Z,4.17
2023-04-27T01:15:55.013Z,3.80
2023-04-27T01:18:58.066Z,4.35
2023-04-27T01:22:01.032Z,4.72
2023-04-27T01:25:04.127Z,4.18
2023-04-27T01:28:08.347Z,3.70
2023-04-27T01:31:13.598Z,3.05
2023-04-27T01:34:16.765Z,3.40
2023-04-27T01:37:23.551Z,3.20
2023-04-27T01:40:26.985Z,4.15
2023-04-27T01:43:31.394Z,4.13
2023-04-27T01:46:34.428Z,4.38
2023-04-27T01:49:37.392Z,5.18
2023-04-27T01:52:40.394Z,4.60
2023-04-27T01:55:43.305Z,4.85
2023-04-27T01:58:46.354Z,4.70
2023-04-27T02:01:49.820Z,4.43
2023-04-27T02:04:52.955Z,4.25
2023-04-27T02:07:56.099Z,3.72
2023-04-27T02:10:59.021Z,3.97
2023-04-27T02:14:02.000Z,3.40
2023-04-27T02:17:07.950Z,2.85
2023-04-27T02:20:11.410Z,3.10
2023-04-27T02:23:14.357Z,3.00
2023-04-27T02:26:20.467Z,2.97
2023-04-27T02:29:23.499Z,3.00
2023-04-27T02:32:27.291Z,3.10
2023-04-27T02:35:32.560Z,2.90
2023-04-27T02:38:36.300Z,2.97
2023-04-27T02:41:39.258Z,2.78
2023-04-27T02:44:42.234Z,2.80
2023-04-27T02:47:45.256Z,3.28
2023-04-27T02:50:49.913Z,3.17
2023-04-27T02:53:55.337Z,3.65
2023-04-27T02:56:58.508Z,3.45
2023-04-27T03:00:02.756Z,2.77
2023-04-27T03:03:07.696Z,3.38
2023-04-27T03:06:10.840Z,3.28
2023-04-27T03:09:14.046Z,3.25
2023-04-27T03:12:17.231Z,3.95
2023-04-27T03:15:20.177Z,3.73
2023-04-27T03:18:23.145Z,4.20
2023-04-27T03:21:27.007Z,3.70
2023-04-27T03:24:29.965Z,4.20
2023-04-27T03:27:32.931Z,4.15
2023-04-27T03:30:35.969Z,3.73
2023-04-27T03:33:38.976Z,4.00
2023-04-27T03:36:42.120Z,3.75
2023-04-27T03:39:46.451Z,3.13
2023-04-27T03:42:49.617Z,3.40
2023-04-27T03:45:53.099Z,3.90
2023-04-27T03:48:56.317Z,3.38
2023-04-27T03:51:59.522Z,3.33
2023-04-27T03:55:02.471Z,3.28
2023-04-27T03:58:05.613Z,4.00
2023-04-27T04:01:10.221Z,3.37
2023-04-27T04:04:13.614Z,3.30
2023-04-27T04:07:18.291Z,3.58
2023-04-27T04:10:21.649Z,3.72
2023-04-27T04:13:27.106Z,4.40
2023-04-27T04:16:30.160Z,4.37
2023-04-27T04:19:33.911Z,3.83
2023-04-27T04:22:38.070Z,4.38
2023-04-27T04:25:41.679Z,3.85
2023-04-27T04:28:44.674Z,4.20
2023-04-27T04:31:47.739Z,3.83
2023-04-27T04:34:51.347Z,3.55
2023-04-27T04:37:56.222Z,5.95
2023-04-27T04:40:59.243Z,3.42
2023-04-27T04:44:03.202Z,3.88
2023-04-27T04:47:06.534Z,3.20
2023-04-27T04:50:10.348Z,3.95
2023-04-27T04:53:13.289Z,3.90
2023-04-27T04:56:17.029Z,4.00
2023-04-27T04:59:19.956Z,4.30
2023-04-27T05:02:23.072Z,3.93
2023-04-27T05:05:26.140Z,3.75
2023-04-27T05:08:29.174Z,4.10
2023-04-27T05:11:32.362Z,5.72
2023-04-27T05:14:35.740Z,5.15
2023-04-27T05:17:38.719Z,3.97
2023-04-27T05:20:41.650Z,3.95
2023-04-27T05:23:44.632Z,4.20
2023-04-27T05:26:47.627Z,4.07
2023-04-27T05:29:50.590Z,4.07
2023-04-27T05:32:53.681Z,3.47
2023-04-27T05:35:56.707Z,3.50
2023-04-27T05:38:59.673Z,4.05
2023-04-27T05:42:03.042Z,3.40
2023-04-27T05:45:06.608Z,3.55
2023-04-27T05:48:09.520Z,3.33
2023-04-27T05:51:12.525Z,3.00
2023-04-27T05:54:15.576Z,3.15
2023-04-27T05:57:18.501Z,3.03
2023-04-27T06:00:22.643Z,3.13
2023-04-27T06:03:26.252Z,3.20
2023-04-27T06:06:33.109Z,3.00
2023-04-27T06:09:36.987Z,3.40
2023-04-27T06:12:40.019Z,3.40
2023-04-27T06:15:43.180Z,3.50
2023-04-27T06:18:46.238Z,3.67
2023-04-27T06:21:50.209Z,4.38
2023-04-27T06:24:53.168Z,3.20
2023-04-27T06:27:56.805Z,3.85
2023-04-27T06:30:59.787Z,4.03
2023-04-27T06:34:02.829Z,3.43
2023-04-27T06:37:05.979Z,3.58
2023-04-27T06:40:09.590Z,3.50
2023-04-27T06:43:12.539Z,3.60
2023-04-27T06:46:15.676Z,3.53
2023-04-27T06:49:18.689Z,3.73
2023-04-27T06:52:22.099Z,4.38
2023-04-27T06:55:25.345Z,3.15
2023-04-27T06:58:28.322Z,2.88
2023-04-27T07:01:31.354Z,3.50
2023-04-27T07:04:34.764Z,2.87
2023-04-27T07:07:37.819Z,2.63
2023-04-27T07:10:41.260Z,2.58
2023-04-27T07:13:44.418Z,2.90
2023-04-27T07:16:47.800Z,2.83
2023-04-27T07:19:51.432Z,2.80
2023-04-27T07:22:54.540Z,3.30
2023-04-27T07:26:00.713Z,2.83
2023-04-27T07:29:11.111Z,2.42
2023-04-27T07:32:17.911Z,2.72
2023-04-27T07:35:23.436Z,2.90
2023-04-27T07:38:26.596Z,2.45
2023-04-27T07:41:30.744Z,2.45
2023-04-27T07:44:33.743Z,2.47
2023-04-27T07:47:37.234Z,2.97
2023-04-27T07:50:40.221Z,2.63
2023-04-27T07:53:43.302Z,3.00
2023-04-27T07:56:46.335Z,3.17
2023-04-27T07:59:49.367Z,2.90
2023-04-27T08:02:54.036Z,3.00
2023-04-27T08:05:57.531Z,3.03
2023-04-27T08:09:02.092Z,2.53
2023-04-27T08:12:05.453Z,2.45
2023-04-27T08:15:08.982Z,2.47
2023-04-27T08:18:11.948Z,3.10
2023-04-27T08:21:15.072Z,2.53
2023-04-27T08:24:18.089Z,3.28
2023-04-27T08:27:21.089Z,2.53
2023-04-27T08:30:24.147Z,2.83
2023-04-27T08:33:27.180Z,2.72
2023-04-27T08:36:30.824Z,2.63
2023-04-27T08:39:33.781Z,1.95
2023-04-27T08:42:36.971Z,2.08
2023-04-27T08:45:39.971Z,2.08
2023-04-27T08:48:43.072Z,1.90
2023-04-27T08:51:47.111Z,1.57
2023-04-27T08:54:50.110Z,1.98
2023-04-27T08:58:01.294Z,2.05
2023-04-27T09:01:07.892Z,2.65
2023-04-27T09:04:12.356Z,2.15
2023-04-27T09:07:16.723Z,2.30
2023-04-27T09:10:19.680Z,2.05
2023-04-27T09:13:22.676Z,2.10
2023-04-27T09:16:28.192Z,1.90
2023-04-27T09:19:31.811Z,2.45
2023-04-27T09:22:49.801Z,2.60
2023-04-27T09:25:52.776Z,2.05
2023-04-27T09:28:58.950Z,2.28
2023-04-27T09:32:02.083Z,2.30
2023-04-27T09:35:06.033Z,2.33
2023-04-27T09:38:08.992Z,2.30
2023-04-27T09:41:12.180Z,2.30
2023-04-27T09:44:15.134Z,2.30
2023-04-27T09:47:18.065Z,2.28
2023-04-27T09:50:22.110Z,1.80
2023-04-27T09:53:31.987Z,2.00
2023-04-27T09:57:02.574Z,2.35
2023-04-27T10:00:14.766Z,2.70
2023-04-27T10:04:00.342Z,3.22
2023-04-27T10:07:08.786Z,2.25
2023-04-27T10:10:23.232Z,2.60
2023-04-27T10:13:27.147Z,2.72
2023-04-27T10:16:30.405Z,2.80
2023-04-27T10:19:33.544Z,2.90
2023-04-27T10:22:48.562Z,3.80
2023-04-27T10:26:01.005Z,2.80
2023-04-27T10:29:19.871Z,2.97
2023-04-27T10:32:27.966Z,2.63
2023-04-27T10:35:38.157Z,2.60
2023-04-27T10:38:45.334Z,2.63
2023-04-27T10:41:55.016Z,2.53
2023-04-27T10:44:58.470Z,2.70
2023-04-27T10:48:02.177Z,2.58
2023-04-27T10:51:10.702Z,2.42
2023-04-27T10:54:13.845Z,2.25
2023-04-27T10:57:16.890Z,2.33
2023-04-27T11:00:27.935Z,3.30
2023-04-27T11:03:31.670Z,3.28
2023-04-27T11:06:45.237Z,3.08
2023-04-27T11:09:49.873Z,3.70
2023-04-27T11:12:52.860Z,3.47
2023-04-27T11:15:57.567Z,3.97
2023-04-27T11:19:06.799Z,4.32
2023-04-27T11:22:09.796Z,4.38
2023-04-27T11:25:12.916Z,3.40
2023-04-27T11:28:22.591Z,4.23
2023-04-27T11:31:29.115Z,4.45
2023-04-27T11:34:38.959Z,3.00
2023-04-27T11:37:42.460Z,2.33
2023-04-27T11:41:08.861Z,4.40
2023-04-27T11:44:12.519Z,4.37
2023-04-27T11:47:23.003Z,4.40
2023-04-27T11:50:26.792Z,3.00
2023-04-27T11:53:36.852Z,3.08
2023-04-27T11:56:43.164Z,3.22
2023-04-27T11:59:46.485Z,3.03
2023-04-27T12:02:49.627Z,2.60
2023-04-27T12:05:53.027Z,2.85
2023-04-27T12:08:57.205Z,2.85
2023-04-27T12:12:00.286Z,2.75
2023-04-27T12:15:03.464Z,2.33
2023-04-27T12:18:06.988Z,2.28
2023-04-27T12:21:10.305Z,2.67
2023-04-27T12:24:13.525Z,2.40
2023-04-27T12:27:16.920Z,2.30
2023-04-27T12:30:19.898Z,2.10
2023-04-27T12:33:23.169Z,2.35
2023-04-27T12:36:27.359Z,2.47
2023-04-27T12:39:30.424Z,2.60
2023-04-27T12:42:33.512Z,2.50
2023-04-27T12:45:36.744Z,2.27
2023-04-27T12:48:39.923Z,2.58
2023-04-27T12:51:43.121Z,3.00
2023-04-27T12:54:46.749Z,3.53
2023-04-27T12:57:49.687Z,2.97
2023-04-27T13:00:52.652Z,2.30
2023-04-27T13:03:56.180Z,2.42
2023-04-27T13:07:03.372Z,2.90
2023-04-27T13:10:06.829Z,2.75
2023-04-27T13:13:09.898Z,2.72
2023-04-27T13:16:13.234Z,3.67
2023-04-27T13:19:16.247Z,3.83
2023-04-27T13:22:21.024Z,4.50
2023-04-27T13:25:24.243Z,4.05
2023-04-27T13:28:27.218Z,3.53
2023-04-27T13:31:31.942Z,3.57
2023-04-27T13:34:34.943Z,3.33
2023-04-27T13:37:38.676Z,3.42
2023-04-27T13:40:41.847Z,3.08
2023-04-27T13:43:44.805Z,3.08
2023-04-27T13:46:47.832Z,2.80
2023-04-27T13:49:55.936Z,3.08
2023-04-27T13:52:58.975Z,3.30
2023-04-27T13:56:01.906Z,3.30
2023-04-27T13:59:04.919Z,3.60
2023-04-27T14:02:08.436Z,3.23
2023-04-27T14:05:11.452Z,3.00
2023-04-27T14:08:14.398Z,2.85
2023-04-27T14:11:19.043Z,3.50
2023-04-27T14:14:22.384Z,3.10
2023-04-27T14:17:25.681Z,4.00
2023-04-27T14:20:29.127Z,3.45
2023-04-27T14:23:32.153Z,3.50
2023-04-27T14:26:35.105Z,2.90
2023-04-27T14:29:38.038Z,4.25
2023-04-27T14:32:41.855Z,3.50
2023-04-27T14:35:44.862Z,3.95
2023-04-27T14:38:47.810Z,3.70
2023-04-27T14:41:51.417Z,3.97
2023-04-27T14:44:56.967Z,3.38
2023-04-27T14:48:00.510Z,3.03
2023-04-27T14:51:03.657Z,3.03
2023-04-27T14:54:07.995Z,2.70
2023-04-27T14:57:11.073Z,2.67
2023-04-27T15:00:14.702Z,2.60
2023-04-27T15:03:17.866Z,3.00
2023-04-27T15:06:22.083Z,2.75
2023-04-27T15:09:25.040Z,2.55
2023-04-27T15:12:28.057Z,3.13
2023-04-27T15:15:31.111Z,3.40
2023-04-27T15:18:35.326Z,2.97
2023-04-27T15:21:38.276Z,2.75
2023-04-27T15:24:41.401Z,3.10
2023-04-27T15:27:44.370Z,2.63
2023-04-27T15:30:47.346Z,2.70
2023-04-27T15:33:50.278Z,2.67
2023-04-27T15:36:53.199Z,2.90
2023-04-27T15:39:56.505Z,2.38
2023-04-27T15:42:59.476Z,2.20
2023-04-27T15:46:05.537Z,2.60
2023-04-27T15:49:08.649Z,2.63
2023-04-27T15:52:11.612Z,2.28
2023-04-27T15:55:14.981Z,2.90
2023-04-27T15:58:17.950Z,2.30
2023-04-27T16:01:21.110Z,2.35
2023-04-27T16:04:24.280Z,2.63
2023-04-27T16:07:27.215Z,2.83
2023-04-27T16:10:30.208Z,2.70
2023-04-27T16:13:33.166Z,2.70
2023-04-27T16:16:36.367Z,3.03
2023-04-27T16:19:39.384Z,2.73
2023-04-27T16:22:42.358Z,2.85
2023-04-27T16:25:45.727Z,2.80
2023-04-27T16:28:48.984Z,2.92
2023-04-27T16:31:52.630Z,2.88
2023-04-27T16:34:55.909Z,2.80
2023-04-27T16:37:58.875Z,3.00
2023-04-27T16:41:01.858Z,2.80
2023-04-27T16:44:04.871Z,3.00
2023-04-27T16:47:07.991Z,2.95
2023-04-27T16:50:11.497Z,2.90
2023-04-27T16:53:15.078Z,3.20
2023-04-27T16:56:27.150Z,2.50
2023-04-27T16:59:30.783Z,2.50
2023-04-27T17:02:34.076Z,2.33
2023-04-27T17:05:37.142Z,2.33
2023-04-27T17:08:40.082Z,2.70
2023-04-27T17:11:43.138Z,3.63
2023-04-27T17:14:46.440Z,4.68
2023-04-27T17:17:49.474Z,4.50
2023-04-27T17:20:53.204Z,3.67
2023-04-27T17:23:56.200Z,4.43
2023-04-27T17:26:59.119Z,6.03
2023-04-27T17:30:02.093Z,5.20
2023-04-27T17:33:05.316Z,3.85
2023-04-27T17:36:08.471Z,2.30
2023-04-27T17:39:13.285Z,2.75
2023-04-27T17:42:16.520Z,2.40
2023-04-27T17:45:19.545Z,2.00
2023-04-27T17:48:22.523Z,2.45
2023-04-27T17:51:25.934Z,2.50
2023-04-27T17:54:30.080Z,3.22
2023-04-27T17:57:33.755Z,3.05
2023-04-27T18:00:36.773Z,2.70
2023-04-27T18:03:41.919Z,3.60
2023-04-27T18:06:45.200Z,4.67
2023-04-27T18:09:48.143Z,9.32
2023-04-27T18:12:51.574Z,8.40
2023-04-27T18:15:54.526Z,7.25
2023-04-27T18:18:57.515Z,7.43
2023-04-27T18:22:00.477Z,6.93
2023-04-27T18:25:03.529Z,6.65
2023-04-27T18:28:06.624Z,6.65
2023-04-27T18:31:18.762Z,5.82
2023-04-27T18:34:21.817Z,5.60
2023-04-27T18:37:24.814Z,5.43
2023-04-27T18:40:27.781Z,5.47
2023-04-27T18:43:31.250Z,6.55
2023-04-27T18:46:34.256Z,5.78
2023-04-27T18:49:37.204Z,5.43
2023-04-27T18:52:40.484Z,5.97
2023-04-27T18:55:43.524Z,6.47
2023-04-27T18:58:48.564Z,6.75
2023-04-27T19:01:51.720Z,6.47
2023-04-27T19:05:11.427Z,7.15
2023-04-27T19:08:15.700Z,6.27
2023-04-27T19:11:22.279Z,6.80
2023-04-27T19:14:25.969Z,7.13
2023-04-27T19:17:28.985Z,6.57
2023-04-27T19:20:32.049Z,7.30
2023-04-27T19:23:34.973Z,9.67
2023-04-27T19:26:38.108Z,8.68
2023-04-27T19:29:59.214Z,10.45
2023-04-27T19:33:02.321Z,8.32
2023-04-27T19:36:05.663Z,7.63
2023-04-27T19:39:08.601Z,6.30
2023-04-27T19:42:11.720Z,6.57
2023-04-27T19:45:15.484Z,6.90
2023-04-27T19:48:18.444Z,5.88
2023-04-27T19:51:21.427Z,6.30
2023-04-27T19:54:24.397Z,6.83
2023-04-27T19:57:27.291Z,9.48
2023-04-27T20:00:30.604Z,9.95
2023-04-27T20:03:35.459Z,11.98
2023-04-27T20:06:40.758Z,9.48
2023-04-27T20:09:43.780Z,9.50
2023-04-27T20:12:56.187Z,9.73
2023-04-27T20:15:59.932Z,17.98
2023-04-27T20:19:05.262Z,22.35
2023-04-27T20:22:08.430Z,21.33
2023-04-27T20:25:14.074Z,20.50
2023-04-27T20:28:17.035Z,19.42
2023-04-27T20:31:21.466Z,22.67
2023-04-27T20:34:24.445Z,20.77
2023-04-27T20:37:27.441Z,19.70
2023-04-27T20:40:30.909Z,18.47
2023-04-27T20:43:33.922Z,15.30
2023-04-27T20:46:37.340Z,15.85
2023-04-27T20:49:40.523Z,14.88
2023-04-27T20:52:43.578Z,13.88
2023-04-27T20:55:46.562Z,11.93
2023-04-27T20:58:49.500Z,13.98
2023-04-27T21:01:52.429Z,12.90
2023-04-27T21:04:55.441Z,13.02
2023-04-27T21:07:58.443Z,16.10
2023-04-27T21:11:01.382Z,12.90
2023-04-27T21:14:04.375Z,19.98
2023-04-27T21:17:07.440Z,16.20
2023-04-27T21:20:11.237Z,25.02
2023-04-27T21:23:14.913Z,21.35
2023-04-27T21:26:17.813Z,18.07
2023-04-27T21:29:21.065Z,17.55
2023-04-27T21:32:24.010Z,21.35
2023-04-27T21:35:27.033Z,25.10
2023-04-27T21:38:30.044Z,26.20
2023-04-27T21:41:34.907Z,22.57
2023-04-27T21:44:38.222Z,18.15
2023-04-27T21:47:41.330Z,18.70
2023-04-27T21:50:44.479Z,19.67
2023-04-27T21:53:47.573Z,18.92
2023-04-27T21:56:50.522Z,14.23
2023-04-27T21:59:53.477Z,14.50
2023-04-27T22:02:56.820Z,15.32
2023-04-27T22:05:59.857Z,14.73
2023-04-27T22:09:03.514Z,18.52
2023-04-27T22:12:07.357Z,17.53
2023-04-27T22:15:10.570Z,16.75
2023-04-27T22:18:14.577Z,18.65
2023-04-27T22:21:17.529Z,15.93
2023-04-27T22:24:20.466Z,17.48
2023-04-27T22:27:24.772Z,16.67
2023-04-27T22:30:29.540Z,14.55
2023-04-27T22:33:32.806Z,13.35
2023-04-27T22:36:35.775Z,13.20
2023-04-27T22:39:39.146Z,9.85
2023-04-27T22:42:42.117Z,9.27
2023-04-27T22:45:45.074Z,8.93
2023-04-27T22:48:47.963Z,9.38
2023-04-27T22:51:51.018Z,13.45
2023-04-27T22:54:53.986Z,13.80
2023-04-27T22:57:56.922Z,15.40
2023-04-27T23:00:59.912Z,16.90
2023-04-27T23:04:03.079Z,14.35
2023-04-27T23:07:06.099Z,14.18
2023-04-27T23:10:09.417Z,13.80
2023-04-27T23:13:12.905Z,13.57
2023-04-27T23:16:16.484Z,13.80
2023-04-27T23:19:19.686Z,13.20
2023-04-27T23:22:22.680Z,12.30
2023-04-27T23:25:25.706Z,12.88
2023-04-27T23:28:28.640Z,12.67
2023-04-27T23:31:31.991Z,12.70
2023-04-27T23:34:34.968Z,12.75
2023-04-27T23:37:38.073Z,12.70
2023-04-27T23:40:41.067Z,12.35
2023-04-27T23:43:44.806Z,12.90
2023-04-27T23:46:47.782Z,12.00
2023-04-27T23:49:50.732Z,13.40
2023-04-27T23:52:53.659Z,14.02
2023-04-27T23:55:56.865Z,12.13
2023-04-27T23:58:59.814Z,11.73
